Time;durP1;ratioP1;P1;durP2;ratioP2;P2;SDS_P1;SDS_P2;PMS_P1;PMS_P2;Temp;Humidity;BMP_temperature;BMP_pressure;BME280_temperature;BME280_humidity;BME280_pressure;Samples;Min_cycle;Max_cycle;Signal;HPM_P1;HPM_P2
2022/01/08 00:01:40;;;;;;;25.33;22.80;;;1.80;99.90;;;;;;4898589;29;20393;-81
2022/01/08 00:04:06;;;;;;;24.85;22.38;;;1.80;99.90;;;;;;4886207;29;20406;-80
2022/01/08 00:06:32;;;;;;;26.05;23.52;;;1.80;99.90;;;;;;4908399;29;20484;-80
2022/01/08 00:08:58;;;;;;;26.40;23.77;;;1.80;99.90;;;;;;4909686;29;20391;-80
2022/01/08 00:11:26;;;;;;;25.47;23.03;;;1.80;99.90;;;;;;4889681;29;20872;-80
2022/01/08 00:13:52;;;;;;;26.55;23.73;;;1.80;99.90;;;;;;4881739;29;20857;-80
2022/01/08 00:16:17;;;;;;;25.67;23.15;;;1.80;99.90;;;;;;4897742;29;20393;-81
2022/01/08 00:18:43;;;;;;;26.60;23.83;;;1.80;99.90;;;;;;4896418;29;20424;-80
2022/01/08 00:21:09;;;;;;;26.60;23.98;;;1.70;99.90;;;;;;4897509;29;20444;-81
2022/01/08 00:23:36;;;;;;;24.95;22.40;;;1.70;99.90;;;;;;4880697;29;20409;-80
2022/01/08 00:26:04;;;;;;;26.55;23.85;;;1.70;99.90;;;;;;4897679;29;20404;-80
2022/01/08 00:28:30;;;;;;;27.58;24.58;;;1.70;99.90;;;;;;4880749;29;20389;-80
2022/01/08 00:30:55;;;;;;;26.67;23.80;;;1.60;99.90;;;;;;4896044;29;20405;-81
2022/01/08 00:33:21;;;;;;;25.63;23.03;;;1.70;99.90;;;;;;4897634;29;20469;-80
2022/01/08 00:35:47;;;;;;;25.88;23.17;;;1.80;99.90;;;;;;4897246;29;20401;-82
2022/01/08 00:38:13;;;;;;;25.85;23.15;;;1.70;99.90;;;;;;4894580;29;20461;-80
2022/01/08 00:40:39;;;;;;;25.10;22.60;;;1.70;99.90;;;;;;4896172;29;20417;-81
2022/01/08 00:43:05;;;;;;;26.52;23.73;;;1.70;99.90;;;;;;4896839;29;20413;-81
2022/01/08 00:45:31;;;;;;;26.03;23.33;;;1.70;99.90;;;;;;4880226;29;20409;-83
2022/01/08 00:47:56;;;;;;;25.73;22.93;;;1.70;99.90;;;;;;4897548;29;20797;-83
2022/01/08 00:50:22;;;;;;;26.77;24.03;;;1.60;99.90;;;;;;4880205;29;20440;-82
2022/01/08 00:52:48;;;;;;;26.97;24.17;;;1.60;99.90;;;;;;4880499;29;20433;-83
2022/01/08 00:55:14;;;;;;;27.70;24.90;;;1.60;99.90;;;;;;4879910;29;20406;-80
2022/01/08 00:57:41;;;;;;;29.07;26.03;;;1.50;99.90;;;;;;4896917;29;20389;-81
2022/01/08 01:00:11;;;;;;;28.40;25.33;;;1.50;99.90;;;;;;4880724;29;20488;-82
2022/01/08 01:02:37;;;;;;;28.00;25.17;;;1.40;99.90;;;;;;4892908;29;20385;-81
2022/01/08 01:05:05;;;;;;;29.48;26.27;;;1.50;99.90;;;;;;4889549;29;20389;-81
2022/01/08 01:07:31;;;;;;;28.02;25.13;;;1.60;99.90;;;;;;4898197;29;20405;-80
2022/01/08 01:09:56;;;;;;;28.63;25.57;;;1.60;99.90;;;;;;4897566;29;20752;-80
2022/01/08 01:12:22;;;;;;;30.55;27.38;;;1.60;99.90;;;;;;4879448;29;20405;-81
2022/01/08 01:14:48;;;;;;;29.42;26.40;;;1.50;99.90;;;;;;4877218;29;20395;-81
2022/01/08 01:17:15;;;;;;;29.95;26.85;;;1.50;99.90;;;;;;4879185;29;20953;-81
2022/01/08 01:19:41;;;;;;;30.20;27.00;;;1.50;99.90;;;;;;4897422;29;20453;-80
2022/01/08 01:22:06;;;;;;;29.83;26.83;;;1.50;99.90;;;;;;4895661;29;20401;-81
2022/01/08 01:24:33;;;;;;;29.00;26.10;;;1.60;99.90;;;;;;4897550;29;20412;-80
2022/01/08 01:49:04;;;;;;;29.95;26.85;;;1.60;99.90;;;;;;4898504;29;20405;-81
2022/01/08 01:51:30;;;;;;;27.95;25.15;;;1.60;99.90;;;;;;4897841;29;20468;-81
2022/01/08 01:53:55;;;;;;;27.83;24.92;;;1.70;99.90;;;;;;4898283;29;20405;-82
2022/01/08 01:56:21;;;;;;;27.70;24.97;;;1.70;99.90;;;;;;4898503;29;20504;-82
2022/01/08 01:58:50;;;;;;;27.80;25.10;;;1.80;99.90;;;;;;4899797;29;20505;-82
2022/01/08 02:01:16;;;;;;;27.30;24.70;;;1.90;99.90;;;;;;4898075;29;20881;-80
2022/01/08 02:03:42;;;;;;;27.35;24.65;;;1.90;99.90;;;;;;4895567;29;20429;-80
2022/01/08 02:06:08;;;;;;;27.83;25.05;;;2.00;99.90;;;;;;4879322;29;20416;-82
2022/01/08 02:08:36;;;;;;;27.80;25.00;;;1.90;99.90;;;;;;4896393;29;20408;-79
2022/01/08 02:11:01;;;;;;;27.90;25.20;;;1.90;99.90;;;;;;4895949;29;20409;-82
2022/01/08 02:13:28;;;;;;;26.88;24.10;;;1.90;99.90;;;;;;4896051;29;20393;-82
2022/01/08 02:15:55;;;;;;;28.67;25.77;;;2.00;99.90;;;;;;4876117;29;20414;-82
2022/01/08 02:18:23;;;;;;;27.95;25.15;;;2.00;99.90;;;;;;4881312;29;20405;-81
2022/01/08 02:20:49;;;;;;;28.88;25.98;;;2.00;99.90;;;;;;4884933;29;20413;-81
2022/01/08 02:23:15;;;;;;;29.00;26.00;;;1.90;99.90;;;;;;4894319;29;20421;-83
2022/01/08 02:25:40;;;;;;;29.27;26.33;;;1.90;99.90;;;;;;4895192;29;20412;-81
2022/01/08 02:28:06;;;;;;;29.30;26.33;;;1.90;99.90;;;;;;4895673;29;20389;-82
2022/01/08 02:30:33;;;;;;;29.60;26.50;;;1.90;99.90;;;;;;4878966;29;20411;-81
2022/01/08 02:32:59;;;;;;;30.33;27.17;;;1.90;99.90;;;;;;4895970;29;20457;-82
2022/01/08 02:35:25;;;;;;;30.95;27.83;;;1.90;99.90;;;;;;4895526;29;20401;-82
2022/01/08 02:37:52;;;;;;;30.70;27.63;;;1.80;99.90;;;;;;4895239;29;20484;-82
2022/01/08 02:40:22;;;;;;;30.90;27.77;;;1.80;99.90;;;;;;4895017;29;20394;-82
2022/01/08 02:42:50;;;;;;;30.23;27.05;;;1.80;99.90;;;;;;4895402;29;20407;-82
2022/01/08 02:45:16;;;;;;;30.33;27.13;;;1.90;99.90;;;;;;4879898;29;20400;-81
2022/01/08 02:47:42;;;;;;;29.60;26.70;;;1.80;99.90;;;;;;4895445;29;20876;-81
2022/01/08 02:50:08;;;;;;;29.15;26.25;;;1.90;99.90;;;;;;4894012;29;20397;-81
2022/01/08 02:52:33;;;;;;;28.42;25.58;;;1.90;99.90;;;;;;4895299;29;20420;-83
2022/01/08 02:54:59;;;;;;;27.92;25.13;;;2.00;99.90;;;;;;4877979;29;20397;-82
2022/01/08 02:57:25;;;;;;;28.67;25.83;;;2.10;99.90;;;;;;4878098;29;20461;-82
2022/01/08 02:59:52;;;;;;;28.17;25.27;;;2.10;99.90;;;;;;4895830;29;20385;-81
2022/01/08 03:02:18;;;;;;;27.55;24.75;;;2.00;99.90;;;;;;4876594;29;20415;-81
2022/01/08 03:04:45;;;;;;;26.92;24.23;;;2.00;99.90;;;;;;4870072;29;20425;-82
2022/01/08 03:07:10;;;;;;;27.17;24.48;;;2.00;99.90;;;;;;4878257;29;20476;-81
2022/01/08 03:09:40;;;;;;;27.80;24.92;;;2.10;99.90;;;;;;4875303;29;20399;-81
2022/01/08 03:12:06;;;;;;;27.42;24.67;;;2.00;99.90;;;;;;4875230;29;20401;-81
2022/01/08 03:14:32;;;;;;;27.42;24.73;;;2.00;99.90;;;;;;4880841;29;20476;-81
2022/01/08 03:16:57;;;;;;;25.98;23.38;;;2.00;99.90;;;;;;4883590;29;20990;-81
2022/01/08 03:19:23;;;;;;;27.53;24.83;;;2.00;99.90;;;;;;4883456;29;20400;-82
2022/01/08 03:21:52;;;;;;;26.70;24.00;;;1.90;99.90;;;;;;4898547;29;20472;-81
2022/01/08 03:24:27;;;;;;;26.00;23.45;;;1.90;99.90;;;;;;4883698;29;20553;-81
2022/01/08 03:26:53;;;;;;;26.27;23.58;;;1.90;99.90;;;;;;4878413;29;20918;-84
2022/01/08 03:29:18;;;;;;;26.80;24.10;;;1.90;99.90;;;;;;4880553;29;20404;-81
2022/01/08 03:31:44;;;;;;;26.20;23.50;;;1.90;99.90;;;;;;4901608;29;20412;-81
2022/01/08 03:34:10;;;;;;;27.10;24.30;;;1.90;99.90;;;;;;4886323;29;20765;-81
2022/01/08 03:36:35;;;;;;;27.38;24.67;;;1.90;99.90;;;;;;4901963;29;20409;-82
2022/01/08 03:39:02;;;;;;;27.38;24.58;;;2.00;99.90;;;;;;4883549;29;20393;-83
2022/01/08 03:41:28;;;;;;;27.25;24.45;;;2.00;99.90;;;;;;4893985;29;20409;-81
2022/01/08 03:43:53;;;;;;;27.33;24.53;;;2.00;99.90;;;;;;4875889;29;20827;-81
2022/01/08 03:46:20;;;;;;;26.67;23.80;;;2.10;99.90;;;;;;4879271;29;20409;-81
2022/01/08 03:49:10;;;;;;;26.63;23.93;;;2.20;99.90;;;;;;4902351;29;20390;-81
2022/01/08 03:51:33;;;;;;;25.05;22.55;;;2.10;99.90;;;;;;4903875;29;20401;-81
2022/01/08 03:53:59;;;;;;;25.63;22.92;;;2.20;99.90;;;;;;4903597;29;20964;-81
2022/01/08 03:56:26;;;;;;;25.48;22.88;;;2.20;99.90;;;;;;4884472;29;20407;-81
2022/01/08 03:58:51;;;;;;;25.63;23.03;;;2.30;99.90;;;;;;4869143;29;20739;-81
2022/01/08 04:01:17;;;;;;;25.80;23.10;;;2.30;99.90;;;;;;4887490;29;20404;-81
2022/01/08 04:03:43;;;;;;;27.00;24.20;;;2.20;99.90;;;;;;4903111;29;20400;-81
2022/01/08 04:06:08;;;;;;;26.83;24.13;;;2.20;99.90;;;;;;4885119;29;20425;-81
2022/01/08 04:08:34;;;;;;;26.13;23.33;;;2.20;99.90;;;;;;4903528;29;20466;-81
2022/01/08 04:11:01;;;;;;;27.05;24.23;;;2.20;99.90;;;;;;4904445;29;20729;-81
2022/01/08 04:13:29;;;;;;;27.00;23.80;;;2.20;99.90;;;;;;4868406;29;20815;-82
2022/01/08 04:16:00;;;;;;;24.70;22.30;;;2.20;99.90;;;;;;4867870;29;20963;-81
2022/01/08 04:18:27;;;;;;;25.42;22.85;;;2.30;99.90;;;;;;4901388;29;20389;-81
2022/01/08 04:23:22;;;;;;;24.60;22.10;;;2.30;99.90;;;;;;4904652;29;20401;-81
2022/01/08 04:25:49;;;;;;;25.58;23.05;;;2.30;99.90;;;;;;4900918;29;20453;-81
2022/01/08 04:28:15;;;;;;;26.13;23.33;;;2.30;99.90;;;;;;4902513;29;20393;-81
2022/01/08 04:30:41;;;;;;;24.70;22.23;;;2.30;99.90;;;;;;4884425;29;20407;-82
2022/01/08 04:33:06;;;;;;;25.43;22.77;;;2.20;99.90;;;;;;4900802;29;20752;-81
2022/01/08 04:35:32;;;;;;;25.33;22.73;;;2.30;99.90;;;;;;4901058;29;20749;-81
2022/01/08 04:37:58;;;;;;;26.00;23.33;;;2.30;99.90;;;;;;4883856;29;20401;-82
2022/01/08 04:40:23;;;;;;;26.70;23.98;;;2.30;99.90;;;;;;4882008;29;20904;-81
2022/01/08 04:42:49;;;;;;;26.40;23.60;;;2.30;99.90;;;;;;4880803;29;20413;-82
2022/01/08 04:45:14;;;;;;;27.47;23.63;;;2.30;99.90;;;;;;4881707;29;20506;-82
2022/01/08 04:47:41;;;;;;;26.00;23.30;;;2.30;99.90;;;;;;4898641;29;20880;-83
2022/01/08 04:50:08;;;;;;;27.13;24.25;;;2.20;99.90;;;;;;4878160;29;20491;-82
2022/01/08 04:52:34;;;;;;;26.50;23.85;;;2.20;99.90;;;;;;4894340;29;20452;-82
2022/01/08 04:54:59;;;;;;;26.60;23.95;;;2.20;99.90;;;;;;4877695;29;20407;-83
2022/01/08 04:57:25;;;;;;;24.90;22.35;;;2.20;99.90;;;;;;4886513;29;20417;-82
2022/01/08 04:59:51;;;;;;;26.83;24.00;;;2.20;99.90;;;;;;4881669;29;20381;-83
2022/01/08 05:02:16;;;;;;;27.57;24.73;;;2.10;99.90;;;;;;4898756;29;20408;-82
2022/01/08 05:04:42;;;;;;;25.97;23.37;;;2.00;99.90;;;;;;4881298;29;20448;-83
2022/01/08 05:07:08;;;;;;;25.90;23.30;;;2.10;99.90;;;;;;4898140;29;20912;-83
2022/01/08 05:09:33;;;;;;;26.77;23.95;;;2.00;99.90;;;;;;4881143;29;20761;-82
2022/01/08 05:11:59;;;;;;;26.17;23.48;;;2.00;99.90;;;;;;4882317;29;20393;-82
2022/01/08 05:14:26;;;;;;;28.07;24.43;;;2.10;99.90;;;;;;4898506;29;20398;-82
2022/01/08 05:16:58;;;;;;;27.65;24.75;;;2.10;99.90;;;;;;4880982;29;20511;-83
2022/01/08 05:19:35;;;;;;;28.27;25.30;;;2.10;99.90;;;;;;4898734;29;20817;-82
2022/01/08 05:22:01;;;;;;;27.60;24.70;;;2.10;99.90;;;;;;4882852;29;20457;-83
2022/01/08 05:24:26;;;;;;;27.42;24.58;;;2.20;99.90;;;;;;4883108;29;20497;-82
2022/01/08 05:26:52;;;;;;;27.55;24.55;;;2.20;99.90;;;;;;4900817;29;20417;-83
2022/01/08 05:29:17;;;;;;;26.73;24.10;;;2.20;99.90;;;;;;4900072;29;20397;-82
2022/01/08 05:31:43;;;;;;;27.60;24.70;;;2.10;99.90;;;;;;4900365;29;20508;-83
2022/01/08 05:34:09;;;;;;;28.35;25.25;;;2.20;99.90;;;;;;4880388;29;20906;-82
2022/01/08 05:36:34;;;;;;;26.30;23.60;;;2.30;99.90;;;;;;4893292;29;20401;-82
2022/01/08 05:39:00;;;;;;;28.33;25.33;;;2.30;99.90;;;;;;4881382;29;20401;-82
2022/01/08 05:41:25;;;;;;;27.40;24.10;;;2.30;99.90;;;;;;4878605;29;20426;-82
2022/01/08 05:43:51;;;;;;;27.92;24.95;;;2.30;99.90;;;;;;4892474;29;20404;-82
2022/01/08 05:46:17;;;;;;;25.98;23.23;;;2.30;99.90;;;;;;4898315;29;20477;-82
2022/01/08 05:48:42;;;;;;;25.93;23.27;;;2.30;99.90;;;;;;4899882;29;20866;-83
2022/01/08 05:51:08;;;;;;;24.57;22.07;;;2.40;99.90;;;;;;4881964;29;20924;-82
2022/01/08 05:53:33;;;;;;;25.20;22.60;;;2.40;99.90;;;;;;4881751;29;21049;-83
2022/01/08 05:55:59;;;;;;;22.95;20.75;;;2.40;99.90;;;;;;4882483;29;20409;-83
2022/01/08 05:58:25;;;;;;;25.23;22.53;;;2.50;99.90;;;;;;4899597;29;20401;-83
2022/01/08 06:00:52;;;;;;;24.10;21.67;;;2.50;99.90;;;;;;4900209;29;20425;-83
2022/01/08 06:03:19;;;;;;;25.92;23.13;;;2.50;99.90;;;;;;4879993;29;20414;-83
2022/01/08 06:05:45;;;;;;;28.38;24.08;;;2.60;99.90;;;;;;4886907;29;20413;-82
2022/01/08 06:08:10;;;;;;;24.90;22.30;;;2.50;99.90;;;;;;4882960;29;20389;-82
2022/01/08 06:10:36;;;;;;;25.37;22.53;;;2.50;99.90;;;;;;4900447;29;20427;-82
2022/01/08 06:13:01;;;;;;;24.70;22.10;;;2.50;99.90;;;;;;4900755;29;20508;-82
2022/01/08 06:15:27;;;;;;;26.60;23.77;;;2.40;99.90;;;;;;4883665;29;20402;-82
2022/01/08 06:17:53;;;;;;;25.67;23.05;;;2.40;99.90;;;;;;4884451;29;20394;-82
2022/01/08 06:20:18;;;;;;;26.55;23.85;;;2.40;99.90;;;;;;4901394;29;20847;-82
2022/01/08 06:22:44;;;;;;;26.70;23.53;;;2.50;99.90;;;;;;4900202;29;20405;-83
2022/01/08 06:25:10;;;;;;;27.93;24.90;;;2.40;99.90;;;;;;4881814;29;20474;-81
2022/01/08 06:27:35;;;;;;;27.52;24.58;;;2.40;99.90;;;;;;4878584;29;20418;-82
2022/01/08 06:30:03;;;;;;;27.02;24.05;;;2.30;99.90;;;;;;4880719;29;20383;-82
2022/01/08 06:32:29;;;;;;;27.90;24.80;;;2.30;99.90;;;;;;4897994;29;20397;-83
2022/01/08 06:34:54;;;;;;;28.40;25.40;;;2.20;99.90;;;;;;4882037;29;20412;-82
2022/01/08 06:37:20;;;;;;;27.53;24.37;;;2.30;99.90;;;;;;4896637;29;20488;-82
2022/01/08 06:39:45;;;;;;;27.90;24.90;;;2.30;99.90;;;;;;4896123;29;20528;-83
2022/01/08 06:42:11;;;;;;;27.60;24.70;;;2.30;99.90;;;;;;4898285;29;20772;-83
2022/01/08 06:44:37;;;;;;;26.30;23.50;;;2.30;99.90;;;;;;4877661;29;20919;-82
2022/01/08 06:47:03;;;;;;;26.77;24.00;;;2.30;99.90;;;;;;4895260;29;20425;-83
2022/01/08 06:49:28;;;;;;;28.38;24.80;;;2.30;99.90;;;;;;4908889;29;20470;-82
2022/01/08 06:51:54;;;;;;;26.03;23.33;;;2.40;99.90;;;;;;4882084;29;20394;-83
2022/01/08 06:54:20;;;;;;;26.43;23.63;;;2.40;99.90;;;;;;4875855;29;20392;-82
2022/01/08 06:56:45;;;;;;;25.85;23.15;;;2.40;99.90;;;;;;4879796;29;20410;-82
2022/01/08 06:59:11;;;;;;;25.15;22.55;;;2.40;99.90;;;;;;4888779;29;20409;-83
2022/01/08 07:01:36;;;;;;;24.90;22.13;;;2.40;99.90;;;;;;4899681;29;20746;-83
2022/01/08 07:04:04;;;;;;;24.40;22.00;;;2.30;99.90;;;;;;4900987;29;20882;-83
2022/01/08 07:06:30;;;;;;;23.55;21.17;;;2.20;99.90;;;;;;4882648;29;20931;-84
2022/01/08 07:08:56;;;;;;;26.17;23.03;;;2.10;99.90;;;;;;4899929;29;20413;-83
2022/01/08 07:11:21;;;;;;;24.70;22.20;;;2.10;99.90;;;;;;4882375;29;20964;-82
2022/01/08 07:13:47;;;;;;;25.70;22.92;;;2.00;99.90;;;;;;4898987;29;20880;-82
2022/01/08 07:16:12;;;;;;;26.60;23.63;;;1.90;99.90;;;;;;4881526;29;20448;-82
2022/01/08 07:18:38;;;;;;;26.47;23.67;;;1.90;99.90;;;;;;4880888;29;20439;-82
2022/01/08 07:21:04;;;;;;;24.67;22.13;;;1.90;99.90;;;;;;4879597;29;20405;-83
2022/01/08 07:23:29;;;;;;;26.63;23.75;;;2.00;99.90;;;;;;4896413;29;20397;-83
2022/01/08 07:25:55;;;;;;;25.58;22.98;;;2.00;99.90;;;;;;4896388;29;20450;-83
2022/01/08 07:28:20;;;;;;;25.48;22.95;;;2.00;99.90;;;;;;4896768;29;20387;-83
2022/01/08 07:30:46;;;;;;;24.77;22.20;;;2.10;99.90;;;;;;4879621;29;20397;-82
2022/01/08 07:33:12;;;;;;;25.67;22.73;;;2.20;99.90;;;;;;4876097;29;20433;-83
2022/01/08 07:35:37;;;;;;;26.05;23.27;;;2.20;99.90;;;;;;4879663;29;20884;-84
2022/01/08 07:38:03;;;;;;;24.58;21.98;;;2.30;99.90;;;;;;4877324;29;20391;-82
2022/01/08 07:40:29;;;;;;;26.30;23.50;;;2.30;99.90;;;;;;4867024;29;20876;-83
2022/01/08 07:42:55;;;;;;;28.15;23.95;;;2.30;99.90;;;;;;4900101;29;20425;-82
2022/01/08 07:45:21;;;;;;;28.15;25.25;;;2.40;99.90;;;;;;4899522;29;20492;-84
2022/01/08 07:47:48;;;;;;;25.23;22.45;;;2.40;99.90;;;;;;4882262;29;20769;-83
2022/01/08 07:50:16;;;;;;;27.55;24.25;;;2.40;99.90;;;;;;4882594;29;20468;-82
2022/01/08 07:52:43;;;;;;;26.67;23.57;;;2.50;99.90;;;;;;4899964;29;20381;-83
2022/01/08 07:55:09;;;;;;;26.35;23.58;;;2.50;99.90;;;;;;4899907;29;20397;-83
2022/01/08 07:57:34;;;;;;;28.60;25.30;;;2.60;99.90;;;;;;4900487;29;20392;-83
2022/01/08 08:00:00;;;;;;;25.98;23.23;;;2.60;99.90;;;;;;4900239;29;20381;-83
2022/01/08 08:02:26;;;;;;;25.35;22.75;;;2.60;99.90;;;;;;4899705;29;20441;-83
2022/01/08 08:04:51;;;;;;;25.53;22.90;;;2.60;99.90;;;;;;4899603;29;20389;-84
2022/01/08 08:07:36;;;;;;;25.80;22.97;;;2.60;99.90;;;;;;4897392;29;20464;-84
2022/01/08 08:10:07;;;;;;;26.23;22.75;;;2.60;99.90;;;;;;4882057;29;20429;-83
2022/01/08 08:12:33;;;;;;;24.15;21.75;;;2.60;99.90;;;;;;4898621;29;20385;-83
2022/01/08 08:14:58;;;;;;;27.35;24.45;;;2.60;99.90;;;;;;4898648;29;20895;-83
2022/01/08 08:17:25;;;;;;;25.20;22.60;;;2.70;99.90;;;;;;4897784;29;20409;-84
2022/01/08 08:19:50;;;;;;;39.63;31.67;;;2.70;99.90;;;;;;4881968;29;20384;-85
2022/01/08 08:22:16;;;;;;;52.03;40.50;;;2.70;99.90;;;;;;4888150;29;20393;-86
2022/01/08 08:24:41;;;;;;;52.80;41.30;;;2.70;99.90;;;;;;4889051;29;20769;-85
2022/01/08 08:27:07;;;;;;;50.70;38.77;;;2.70;99.90;;;;;;4888969;29;20412;-85
2022/01/08 08:29:40;;;;;;;47.20;36.73;;;2.70;99.90;;;;;;4889409;29;20442;-87
2022/01/08 08:32:09;;;;;;;43.85;35.97;;;2.70;99.90;;;;;;4891915;29;20753;-85
2022/01/08 08:34:39;;;;;;;34.78;29.70;;;2.70;99.90;;;;;;4889702;29;20385;-85
2022/01/08 08:37:10;;;;;;;32.22;28.23;;;2.70;99.90;;;;;;4887688;29;20401;-88
2022/01/08 08:39:38;;;;;;;30.48;26.83;;;2.60;99.90;;;;;;4889256;29;20413;-85
2022/01/08 08:42:05;;;;;;;27.83;24.88;;;2.60;99.90;;;;;;4882060;29;20752;-84
2022/01/08 08:44:32;;;;;;;29.58;26.38;;;2.50;99.90;;;;;;4880482;29;20416;-83
2022/01/08 08:46:59;;;;;;;31.05;27.75;;;2.50;99.90;;;;;;4880232;29;20413;-83
2022/01/08 08:49:28;;;;;;;32.63;29.00;;;2.40;99.90;;;;;;4880508;29;20468;-83
2022/01/08 08:51:54;;;;;;;34.33;29.92;;;2.30;99.90;;;;;;4880044;29;20421;-83
2022/01/08 08:54:20;;;;;;;33.20;29.48;;;2.30;99.90;;;;;;4880603;29;20378;-83
2022/01/08 08:56:47;;;;;;;34.77;29.77;;;2.20;99.90;;;;;;4880252;29;20434;-83
2022/01/08 08:59:18;;;;;;;33.08;29.42;;;2.10;99.90;;;;;;4880429;29;20421;-84
2022/01/08 09:01:48;;;;;;;39.80;32.10;;;2.00;99.90;;;;;;4880411;29;20396;-84
2022/01/08 09:04:22;;;;;;;37.53;31.10;;;2.00;99.90;;;;;;4880414;29;20386;-84
2022/01/08 09:06:59;;;;;;;34.92;29.55;;;2.00;99.90;;;;;;4880261;29;20415;-84
2022/01/08 09:09:29;;;;;;;36.75;30.55;;;1.90;99.90;;;;;;4879960;29;20420;-85
2022/01/08 09:11:57;;;;;;;33.65;29.33;;;2.00;99.90;;;;;;4883487;29;20493;-83
2022/01/08 09:14:24;;;;;;;34.70;30.02;;;2.00;99.90;;;;;;4877488;29;20798;-82
2022/01/08 09:16:53;;;;;;;35.40;30.48;;;2.00;99.90;;;;;;4878792;29;20404;-83
2022/01/08 09:19:21;;;;;;;37.13;30.20;;;2.00;99.90;;;;;;4880808;29;20401;-81
2022/01/08 09:21:49;;;;;;;33.03;28.15;;;2.00;99.90;;;;;;4883478;29;20398;-82
2022/01/08 09:24:19;;;;;;;32.05;27.90;;;2.10;99.90;;;;;;4881972;29;20401;-81
2022/01/08 09:26:48;;;;;;;31.40;27.95;;;2.20;99.90;;;;;;4882075;29;20416;-81
2022/01/08 09:29:16;;;;;;;29.38;25.75;;;2.30;99.90;;;;;;4881481;29;20892;-84
2022/01/08 09:31:44;;;;;;;28.38;25.38;;;2.40;99.90;;;;;;4896766;29;21152;-82
2022/01/08 09:34:10;;;;;;;27.57;24.53;;;2.50;99.90;;;;;;4879271;29;20924;-83
2022/01/08 09:36:39;;;;;;;26.30;23.50;;;2.50;99.90;;;;;;4876460;29;20473;-83
2022/01/08 09:39:07;;;;;;;25.88;23.08;;;2.60;99.90;;;;;;4879300;29;20452;-81
2022/01/08 09:41:33;;;;;;;25.58;22.83;;;2.70;99.90;;;;;;4897388;29;20390;-82
2022/01/08 09:43:59;;;;;;;25.10;22.45;;;2.70;99.90;;;;;;4898173;29;20452;-82
2022/01/08 09:46:25;;;;;;;23.77;21.30;;;2.70;99.90;;;;;;4879574;29;20405;-83
2022/01/08 09:48:51;;;;;;;25.03;22.47;;;2.70;99.90;;;;;;4879784;29;20476;-82
2022/01/08 09:51:17;;;;;;;24.07;21.50;;;2.80;99.90;;;;;;4898413;29;20389;-82
2022/01/08 09:53:43;;;;;;;23.80;21.50;;;2.80;99.90;;;;;;4897730;29;20865;-83
2022/01/08 09:56:11;;;;;;;23.95;21.35;;;2.80;99.90;;;;;;4899211;29;20404;-83
2022/01/08 09:58:41;;;;;;;23.13;20.80;;;2.90;99.90;;;;;;4882322;29;20389;-84
2022/01/08 10:01:25;;;;;;;22.75;20.50;;;2.90;99.90;;;;;;4897921;29;20385;-83
2022/01/08 10:03:52;;;;;;;23.48;20.80;;;3.00;99.90;;;;;;4880428;29;20393;-82
2022/01/08 10:06:27;;;;;;;23.67;21.17;;;3.10;99.90;;;;;;4896860;29;20428;-82
2022/01/08 10:08:53;;;;;;;23.48;21.10;;;3.00;99.90;;;;;;4880048;29;20480;-83
2022/01/08 10:11:20;;;;;;;23.55;21.10;;;3.10;99.90;;;;;;4880410;29;20530;-83
2022/01/08 10:13:48;;;;;;;21.70;19.55;;;3.20;99.90;;;;;;4893566;29;20481;-83
2022/01/08 10:19:18;;;;;;;21.60;19.40;;;3.80;99.90;;;;;;4895261;29;20416;-83
2022/01/08 10:21:45;;;;;;;19.63;17.70;;;4.00;99.90;;;;;;4877942;29;20802;-83
2022/01/08 10:24:11;;;;;;;20.10;18.13;;;4.20;99.90;;;;;;4878915;29;20918;-87
2022/01/08 10:26:39;;;;;;;18.70;16.80;;;4.50;99.90;;;;;;4882138;29;20496;-86
2022/01/08 10:29:23;;;;;;;19.67;17.65;;;4.60;99.90;;;;;;4897375;29;20377;-87
2022/01/08 10:31:52;;;;;;;18.83;17.00;;;4.60;99.90;;;;;;4875203;29;20804;-85
2022/01/08 10:34:24;;;;;;;19.80;17.90;;;4.70;99.90;;;;;;4879611;29;20425;-84
2022/01/08 10:36:56;;;;;;;20.02;18.02;;;4.60;99.90;;;;;;4879307;29;20452;-84
2022/01/08 10:39:36;;;;;;;21.35;19.13;;;4.50;99.90;;;;;;4878793;29;20390;-83
2022/01/08 10:42:14;;;;;;;20.70;18.50;;;4.40;99.90;;;;;;4879056;29;20420;-83
2022/01/08 10:44:42;;;;;;;21.42;19.13;;;4.30;99.90;;;;;;4877060;29;20402;-83
2022/01/08 10:47:13;;;;;;;21.97;19.70;;;4.10;99.90;;;;;;4896645;29;20420;-83
2022/01/08 10:50:08;;;;;;;22.10;19.80;;;3.90;99.90;;;;;;4897133;29;20903;-84
2022/01/08 10:52:46;;;;;;;21.23;18.98;;;3.80;99.90;;;;;;4873982;29;20397;-83
2022/01/08 10:55:12;;;;;;;21.10;19.00;;;3.80;99.90;;;;;;4897065;29;20936;-84
2022/01/08 10:57:41;;;;;;;20.90;18.90;;;3.80;99.90;;;;;;4880356;29;20500;-83
2022/01/08 11:00:12;;;;;;;23.52;21.15;;;3.90;99.90;;;;;;4896614;29;20829;-83
2022/01/08 11:02:43;;;;;;;20.48;18.35;;;3.90;99.90;;;;;;4878312;29;20417;-83
2022/01/08 11:05:11;;;;;;;18.98;16.98;;;4.00;99.90;;;;;;4895222;29;20797;-83
2022/01/08 11:07:41;;;;;;;17.90;16.13;;;4.00;99.90;;;;;;4897150;29;20502;-83
2022/01/08 11:10:15;;;;;;;18.40;16.40;;;4.00;99.90;;;;;;4877623;29;20986;-83
2022/01/08 11:12:41;;;;;;;17.50;15.70;;;4.00;99.90;;;;;;4880239;29;20438;-85
2022/01/08 11:17:42;;;;;;;17.58;15.68;;;3.90;99.90;;;;;;4893503;29;20460;-83
2022/01/08 11:20:23;;;;;;;16.65;14.95;;;3.80;99.90;;;;;;4899936;29;20892;-82
2022/01/08 11:22:51;;;;;;;18.27;15.55;;;3.90;99.90;;;;;;4896829;29;20397;-83
2022/01/08 11:25:26;;;;;;;17.55;15.70;;;3.80;99.90;;;;;;4877705;29;20405;-83
2022/01/08 11:27:56;;;;;;;17.05;14.48;;;3.80;99.90;;;;;;4880752;29;20453;-83
2022/01/08 11:30:34;;;;;;;17.17;15.38;;;3.90;99.90;;;;;;4897610;29;20445;-83
2022/01/08 11:33:07;;;;;;;16.20;14.30;;;4.00;99.90;;;;;;4879692;29;20417;-82
2022/01/08 11:35:36;;;;;;;15.27;13.48;;;4.20;99.90;;;;;;4879891;29;20955;-83
2022/01/08 11:38:04;;;;;;;15.02;13.50;;;4.10;99.90;;;;;;4876138;29;20403;-83
2022/01/08 11:40:31;;;;;;;14.67;13.10;;;3.90;99.90;;;;;;4862693;29;20473;-83
2022/01/08 11:43:00;;;;;;;17.10;14.38;;;4.00;99.90;;;;;;4879146;29;20420;-83
2022/01/08 11:45:33;;;;;;;16.40;13.50;;;4.00;99.90;;;;;;4896132;29;20457;-83
2022/01/08 11:48:02;;;;;;;16.23;13.02;;;4.00;99.90;;;;;;4875071;29;20415;-83
2022/01/08 11:50:29;;;;;;;14.15;12.55;;;4.00;99.90;;;;;;4883377;29;20415;-84
2022/01/08 11:53:18;;;;;;;16.15;12.73;;;4.20;99.90;;;;;;4906266;29;20742;-83
2022/01/08 11:55:47;;;;;;;16.50;13.10;;;4.40;99.90;;;;;;4913748;29;20427;-84
2022/01/08 11:58:18;;;;;;;14.52;12.98;;;4.40;99.90;;;;;;4877870;29;20873;-83
2022/01/08 12:00:59;;;;;;;15.25;13.60;;;4.40;99.90;;;;;;4891848;29;20393;-83
2022/01/08 12:03:41;;;;;;;18.05;14.68;;;4.40;99.90;;;;;;4895006;29;20390;-82
2022/01/08 12:06:19;;;;;;;16.55;14.48;;;4.40;99.90;;;;;;4877633;29;20405;-84
2022/01/08 12:09:08;;;;;;;17.70;14.67;;;4.30;99.90;;;;;;4895800;29;20764;-84
2022/01/08 12:12:04;;;;;;;16.30;13.07;;;4.20;99.90;;;;;;4894165;29;20873;-84
2022/01/08 12:14:32;;;;;;;16.88;13.18;;;4.30;99.90;;;;;;4892483;29;20760;-83
2022/01/08 12:17:19;;;;;;;16.20;12.88;;;4.30;99.90;;;;;;4895774;29;20887;-83
2022/01/08 12:19:45;;;;;;;21.35;19.13;;;4.40;99.90;;;;;;4879368;29;20389;-83
2022/01/08 12:22:20;;;;;;;15.15;13.48;;;4.50;99.90;;;;;;4879689;29;20457;-84
2022/01/08 12:24:53;;;;;;;16.40;12.73;;;4.60;99.90;;;;;;4877907;29;20424;-83
2022/01/08 12:27:33;;;;;;;14.48;11.25;;;4.60;99.90;;;;;;4881638;29;20921;-83
2022/01/08 12:30:01;;;;;;;12.90;11.57;;;4.70;99.90;;;;;;4882697;29;20389;-83
2022/01/08 12:32:36;;;;;;;13.32;11.20;;;4.80;99.90;;;;;;4883029;29;20392;-82
2022/01/08 12:35:19;;;;;;;13.38;11.02;;;4.90;99.90;;;;;;4884615;29;20389;-83
2022/01/08 12:38:02;;;;;;;12.63;11.00;;;4.90;99.90;;;;;;4898362;29;20393;-82
2022/01/08 12:40:40;;;;;;;15.13;11.23;;;4.80;99.90;;;;;;4885521;29;20938;-81
2022/01/08 12:43:35;;;;;;;14.15;11.02;;;4.70;99.90;;;;;;4884544;29;20393;-81
2022/01/08 12:46:22;;;;;;;15.95;11.40;;;4.80;99.90;;;;;;4881690;29;20836;-81
2022/01/08 12:49:06;;;;;;;15.20;11.05;;;4.70;99.90;;;;;;4898466;29;20425;-80
2022/01/08 12:51:44;;;;;;;13.98;12.10;;;4.60;99.90;;;;;;4881338;29;20382;-82
2022/01/08 12:54:10;;;;;;;15.07;11.43;;;4.70;99.90;;;;;;4898238;29;20464;-82
2022/01/08 12:56:48;;;;;;;14.90;12.53;;;4.50;99.90;;;;;;4882992;29;20393;-82
2022/01/08 12:59:16;;;;;;;15.07;11.95;;;4.50;99.90;;;;;;4899638;29;20476;-81
2022/01/08 13:01:49;;;;;;;14.60;12.07;;;4.40;99.90;;;;;;4882516;29;20407;-82
2022/01/08 13:04:17;;;;;;;15.18;11.13;;;4.40;99.90;;;;;;4879506;29;20494;-81
2022/01/08 13:06:44;;;;;;;14.43;11.90;;;4.40;99.90;;;;;;4879416;29;20417;-82
2022/01/08 13:09:10;;;;;;;14.55;12.05;;;4.40;99.90;;;;;;4879206;29;20399;-83
2022/01/08 13:11:38;;;;;;;15.45;12.48;;;4.30;99.90;;;;;;4879573;29;20379;-81